createdAt,value
2019-02-19T00:00:24.152Z,16.00
2019-02-19T00:02:28.318Z,16.10
2019-02-19T00:03:28.555Z,16.60
2019-02-19T00:05:32.723Z,16.30
2019-02-19T00:06:32.963Z,16.20
2019-02-19T00:08:37.120Z,16.10
2019-02-19T00:09:37.354Z,16.10
2019-02-19T00:11:41.525Z,18.50
2019-02-19T00:12:41.768Z,18.20
2019-02-19T00:14:45.918Z,15.40
2019-02-19T00:15:46.155Z,15.20
2019-02-19T00:17:39.254Z,14.90
2019-02-19T00:18:39.488Z,13.60
2019-02-19T00:20:43.661Z,14.20
2019-02-19T00:21:43.897Z,13.80
2019-02-19T00:23:48.045Z,11.90
2019-02-19T00:24:48.282Z,12.40
2019-02-19T00:26:52.447Z,13.80
2019-02-19T00:27:52.684Z,14.50
2019-02-19T00:29:56.829Z,12.20
2019-02-19T00:30:57.073Z,12.50
2019-02-19T00:33:01.233Z,13.20
2019-02-19T00:34:01.471Z,13.90
2019-02-19T00:36:05.635Z,13.60
2019-02-19T00:37:05.871Z,13.30
2019-02-19T00:39:10.018Z,12.00
2019-02-19T00:40:10.255Z,13.20
2019-02-19T00:42:14.422Z,14.10
2019-02-19T00:43:14.660Z,13.60
2019-02-19T00:45:18.806Z,14.30
2019-02-19T00:46:19.045Z,14.40
2019-02-19T00:48:23.214Z,15.00
2019-02-19T00:49:23.495Z,14.70
2019-02-19T00:51:27.624Z,15.40
2019-02-19T00:52:27.860Z,14.70
2019-02-19T00:54:32.012Z,13.90
2019-02-19T00:55:32.245Z,14.70
2019-02-19T00:57:25.340Z,13.90
2019-02-19T00:58:25.580Z,13.40
2019-02-19T01:00:29.734Z,13.90
2019-02-19T01:01:29.969Z,13.30
2019-02-19T01:03:34.135Z,15.20
2019-02-19T01:04:34.372Z,14.30
2019-02-19T01:06:38.549Z,13.80
2019-02-19T01:07:38.788Z,12.90
2019-02-19T01:09:42.935Z,12.40
2019-02-19T01:10:43.174Z,12.30
2019-02-19T01:12:47.339Z,11.90
2019-02-19T01:13:47.576Z,13.10
2019-02-19T01:15:51.727Z,11.70
2019-02-19T01:16:51.962Z,13.00
2019-02-19T01:18:56.128Z,11.50
2019-02-19T01:19:56.368Z,12.50
2019-02-19T01:22:00.548Z,11.40
2019-02-19T01:23:00.789Z,10.60
2019-02-19T01:25:04.950Z,12.30
2019-02-19T01:26:05.173Z,10.30
2019-02-19T01:27:58.270Z,11.90
2019-02-19T01:28:58.505Z,12.60
2019-02-19T01:31:02.658Z,13.10
2019-02-19T01:32:02.892Z,10.90
2019-02-19T01:34:07.061Z,11.70
2019-02-19T01:35:07.315Z,13.40
2019-02-19T01:37:11.447Z,12.30
2019-02-19T01:38:11.686Z,12.80
2019-02-19T01:40:15.865Z,13.60
2019-02-19T01:41:16.102Z,11.10
2019-02-19T01:43:20.270Z,11.80
2019-02-19T01:44:20.513Z,12.20
2019-02-19T01:46:24.656Z,11.70
2019-02-19T01:47:25.068Z,15.30
2019-02-19T01:49:29.064Z,11.20
2019-02-19T01:50:29.306Z,11.40
2019-02-19T01:52:33.455Z,11.90
2019-02-19T01:53:33.691Z,11.10
2019-02-19T01:55:37.862Z,10.40
2019-02-19T01:56:38.103Z,11.10
2019-02-19T01:58:42.268Z,11.70
2019-02-19T01:59:42.507Z,10.50
2019-02-19T02:01:46.654Z,11.80
2019-02-19T02:02:46.893Z,10.80
2019-02-19T02:04:51.065Z,10.50
2019-02-19T02:05:51.306Z,11.70
2019-02-19T02:07:44.384Z,10.20
2019-02-19T02:08:44.620Z,11.10
2019-02-19T02:10:48.791Z,10.30
2019-02-19T02:11:49.027Z,9.30
2019-02-19T02:13:53.197Z,9.30
2019-02-19T02:14:53.435Z,9.80
2019-02-19T02:16:57.586Z,9.20
2019-02-19T02:17:57.820Z,9.10
2019-02-19T02:20:01.990Z,9.30
2019-02-19T02:21:02.231Z,8.80
2019-02-19T02:23:06.370Z,9.70
2019-02-19T02:24:06.605Z,10.60
2019-02-19T02:26:10.773Z,9.30
2019-02-19T02:27:11.011Z,10.40
2019-02-19T02:29:15.177Z,9.20
2019-02-19T02:30:15.416Z,8.90
2019-02-19T02:32:19.564Z,10.20
2019-02-19T02:33:19.804Z,9.20
2019-02-19T02:35:23.976Z,10.70
2019-02-19T02:36:24.211Z,10.70
2019-02-19T02:38:28.363Z,9.00
2019-02-19T02:39:28.597Z,8.20
2019-02-19T02:41:32.770Z,8.80
2019-02-19T02:42:33.008Z,9.60
2019-02-19T02:44:37.172Z,8.80
2019-02-19T02:45:37.409Z,7.90
2019-02-19T02:47:30.490Z,9.50
2019-02-19T02:48:30.724Z,8.10
2019-02-19T02:50:34.890Z,8.70
2019-02-19T02:51:35.126Z,8.20
2019-02-19T02:53:39.288Z,8.30
2019-02-19T02:54:39.515Z,9.10
2019-02-19T02:56:43.683Z,9.70
2019-02-19T02:57:43.920Z,9.30
2019-02-19T02:59:48.098Z,8.20
2019-02-19T03:00:48.337Z,7.60
2019-02-19T03:02:52.484Z,9.50
2019-02-19T03:03:52.723Z,7.00
2019-02-19T03:05:56.897Z,10.30
2019-02-19T03:06:57.132Z,8.30
2019-02-19T03:09:01.283Z,10.10
2019-02-19T03:10:01.516Z,7.00
2019-02-19T03:12:05.686Z,7.80
2019-02-19T03:13:05.920Z,8.30
2019-02-19T03:15:10.091Z,7.30
2019-02-19T03:16:10.321Z,7.80
2019-02-19T03:18:03.395Z,7.30
2019-02-19T03:19:03.629Z,7.60
2019-02-19T03:21:07.797Z,7.60
2019-02-19T03:22:08.032Z,6.70
2019-02-19T03:24:12.179Z,7.30
2019-02-19T03:25:12.414Z,8.30
2019-02-19T03:27:16.582Z,7.00
2019-02-19T03:28:16.813Z,6.70
2019-02-19T03:30:21.001Z,6.70
2019-02-19T03:31:21.233Z,6.80
2019-02-19T03:33:25.377Z,7.40
2019-02-19T03:34:25.610Z,7.40
2019-02-19T03:36:29.773Z,7.40
2019-02-19T03:37:30.010Z,7.70
2019-02-19T03:39:34.156Z,7.50
2019-02-19T03:40:34.395Z,8.30
2019-02-19T03:42:38.562Z,7.40
2019-02-19T03:43:38.796Z,7.30
2019-02-19T03:45:42.941Z,8.80
2019-02-19T03:46:43.177Z,7.80
2019-02-19T03:48:47.344Z,8.30
2019-02-19T03:49:47.587Z,8.00
2019-02-19T03:51:51.753Z,7.10
2019-02-19T03:52:51.991Z,7.40
2019-02-19T03:54:56.136Z,7.50
2019-02-19T03:55:56.372Z,8.60
2019-02-19T03:57:49.469Z,7.60
2019-02-19T03:58:49.707Z,8.10
2019-02-19T04:00:53.854Z,9.70
2019-02-19T04:01:54.090Z,9.20
2019-02-19T04:03:58.257Z,8.50
2019-02-19T04:04:58.496Z,7.50
2019-02-19T04:07:02.668Z,6.90
2019-02-19T04:08:02.900Z,7.20
2019-02-19T04:10:07.045Z,8.80
2019-02-19T04:11:07.282Z,11.00
2019-02-19T04:13:11.452Z,7.80
2019-02-19T04:14:11.692Z,8.60
2019-02-19T04:16:21.305Z,7.40
2019-02-19T04:17:16.071Z,6.70
2019-02-19T04:19:20.237Z,7.00
2019-02-19T04:20:20.472Z,8.90
2019-02-19T04:22:24.641Z,7.10
2019-02-19T04:23:24.878Z,6.70
2019-02-19T04:25:29.018Z,7.40
2019-02-19T04:26:29.255Z,6.30
2019-02-19T04:28:33.420Z,5.90
2019-02-19T04:29:33.654Z,6.80
2019-02-19T04:31:37.796Z,6.00
2019-02-19T04:32:38.029Z,7.60
2019-02-19T04:34:42.199Z,6.80
2019-02-19T04:35:42.429Z,6.50
2019-02-19T04:37:35.504Z,6.20
2019-02-19T04:38:35.740Z,5.90
2019-02-19T04:40:39.902Z,5.50
2019-02-19T04:41:40.135Z,6.30
2019-02-19T04:43:44.297Z,6.30
2019-02-19T04:44:44.531Z,6.30
2019-02-19T04:46:48.676Z,6.80
2019-02-19T04:47:48.910Z,7.60
2019-02-19T04:49:53.078Z,9.40
2019-02-19T04:50:53.312Z,8.60
2019-02-19T04:52:57.458Z,7.10
2019-02-19T04:53:57.693Z,6.80
2019-02-19T04:56:01.860Z,6.80
2019-02-19T04:57:02.095Z,8.80
2019-02-19T04:59:06.259Z,7.90
2019-02-19T05:00:06.496Z,6.70
2019-02-19T05:02:10.635Z,7.20
2019-02-19T05:03:10.869Z,7.80
2019-02-19T05:05:15.052Z,7.50
2019-02-19T05:06:15.282Z,7.60
2019-02-19T05:08:08.370Z,6.90
2019-02-19T05:09:08.601Z,7.00
2019-02-19T05:11:12.762Z,7.00
2019-02-19T05:12:12.995Z,7.50
2019-02-19T05:14:17.134Z,7.00
2019-02-19T05:15:17.370Z,7.90
2019-02-19T05:17:21.532Z,7.10
2019-02-19T05:18:21.765Z,6.60
2019-02-19T05:20:25.927Z,9.00
2019-02-19T05:21:26.161Z,7.70
2019-02-19T05:23:30.303Z,6.90
2019-02-19T05:24:30.540Z,8.20
2019-02-19T05:26:34.704Z,7.80
2019-02-19T05:27:34.939Z,8.40
2019-02-19T05:29:39.078Z,7.30
2019-02-19T05:30:39.312Z,7.60
2019-02-19T05:32:43.513Z,8.00
2019-02-19T05:33:43.746Z,7.40
2019-02-19T05:35:47.909Z,7.50
2019-02-19T05:36:48.140Z,6.70
2019-02-19T05:38:52.284Z,7.80
2019-02-19T05:39:52.580Z,8.90
2019-02-19T05:41:56.676Z,7.00
2019-02-19T05:42:56.909Z,8.90
2019-02-19T05:45:01.061Z,8.50
2019-02-19T05:46:01.294Z,9.00
2019-02-19T05:47:54.384Z,11.40
2019-02-19T05:48:54.720Z,8.00
2019-02-19T05:50:58.886Z,9.80
2019-02-19T05:51:59.096Z,8.70
2019-02-19T05:54:03.256Z,7.30
2019-02-19T05:55:03.493Z,7.70
2019-02-19T05:57:07.654Z,7.90
2019-02-19T05:58:07.891Z,8.10
2019-02-19T06:00:12.037Z,8.20
2019-02-19T06:01:12.275Z,8.70
2019-02-19T06:03:16.439Z,7.80
2019-02-19T06:04:16.677Z,8.00
2019-02-19T06:06:20.817Z,9.20
2019-02-19T06:07:21.052Z,9.20
2019-02-19T06:09:25.217Z,8.60
2019-02-19T06:10:25.459Z,8.10
2019-02-19T06:12:29.620Z,8.80
2019-02-19T06:13:29.853Z,8.50
2019-02-19T06:15:34.027Z,7.40
2019-02-19T06:16:34.230Z,8.00
2019-02-19T06:18:38.394Z,7.60
2019-02-19T06:19:38.625Z,8.10
2019-02-19T06:21:42.767Z,9.80
2019-02-19T06:22:43.007Z,9.70
2019-02-19T06:24:47.165Z,8.00
2019-02-19T06:25:47.398Z,10.70
2019-02-19T06:27:40.488Z,8.40
2019-02-19T06:28:40.724Z,7.80
2019-02-19T06:30:44.865Z,8.20
2019-02-19T06:31:45.102Z,8.50
2019-02-19T06:33:49.268Z,8.70
2019-02-19T06:34:49.508Z,9.40
2019-02-19T06:36:53.652Z,9.60
2019-02-19T06:37:53.888Z,8.50
2019-02-19T06:39:58.052Z,7.50
2019-02-19T06:40:58.290Z,7.90
2019-02-19T06:43:02.455Z,8.20
2019-02-19T06:44:02.688Z,7.80
2019-02-19T06:46:06.834Z,8.20
2019-02-19T06:47:07.286Z,10.30
2019-02-19T06:49:11.236Z,8.20
2019-02-19T06:50:11.473Z,8.70
2019-02-19T06:52:15.614Z,7.80
2019-02-19T06:53:15.849Z,7.20
2019-02-19T06:55:20.015Z,8.10
2019-02-19T06:56:20.245Z,7.80
2019-02-19T06:58:24.415Z,7.40
2019-02-19T06:59:24.646Z,7.40
2019-02-19T07:01:28.788Z,7.80
2019-02-19T07:02:29.025Z,7.40
2019-02-19T07:04:33.188Z,8.30
2019-02-19T07:05:33.427Z,7.30
2019-02-19T07:07:26.494Z,9.30
2019-02-19T07:08:26.730Z,9.80
2019-02-19T07:10:30.890Z,9.80
2019-02-19T07:11:31.132Z,9.10
2019-02-19T07:13:35.291Z,7.40
2019-02-19T07:14:35.517Z,10.20
2019-02-19T07:16:39.685Z,29.90
2019-02-19T07:17:39.931Z,47.10
2019-02-19T07:19:44.086Z,25.50
2019-02-19T07:20:44.322Z,27.90
2019-02-19T07:22:48.490Z,32.20
2019-02-19T07:23:48.726Z,46.70
2019-02-19T07:25:52.891Z,30.10
2019-02-19T07:26:53.128Z,31.10
2019-02-19T07:28:57.269Z,11.30
2019-02-19T07:29:57.505Z,11.60
2019-02-19T07:32:01.671Z,12.10
2019-02-19T07:33:01.905Z,12.50
2019-02-19T07:35:06.057Z,20.10
2019-02-19T07:36:06.284Z,19.30
2019-02-19T07:37:59.391Z,14.00
2019-02-19T07:38:59.608Z,13.10
2019-02-19T07:41:03.769Z,9.70
2019-02-19T07:42:04.108Z,9.80
2019-02-19T07:44:08.249Z,11.00
2019-02-19T07:45:08.481Z,10.60
2019-02-19T07:47:12.645Z,8.40
2019-02-19T07:48:12.885Z,9.00
2019-02-19T07:50:17.044Z,8.20
2019-02-19T07:51:17.280Z,10.60
2019-02-19T07:53:21.420Z,7.90
2019-02-19T07:54:21.659Z,8.10
2019-02-19T07:56:25.820Z,7.70
2019-02-19T07:57:26.060Z,8.50
2019-02-19T07:59:30.196Z,8.20
2019-02-19T08:00:30.438Z,8.50
2019-02-19T08:02:34.596Z,8.50
2019-02-19T08:03:34.833Z,9.00
2019-02-19T08:05:39.007Z,12.40
2019-02-19T08:06:39.243Z,10.00
2019-02-19T08:08:43.385Z,11.60
2019-02-19T08:09:43.621Z,11.20
2019-02-19T08:11:47.780Z,8.60
2019-02-19T08:12:48.018Z,7.50
2019-02-19T08:14:52.160Z,10.10
2019-02-19T08:15:52.393Z,8.10
2019-02-19T08:17:45.496Z,8.80
2019-02-19T08:18:45.731Z,9.40
2019-02-19T08:20:49.874Z,11.20
2019-02-19T08:21:50.105Z,9.50
2019-02-19T08:23:54.266Z,10.20
2019-02-19T08:24:54.502Z,10.70
2019-02-19T08:26:58.665Z,9.80
2019-02-19T08:27:58.900Z,10.70
2019-02-19T08:30:03.067Z,10.00
2019-02-19T08:31:03.287Z,10.70
2019-02-19T08:33:07.452Z,10.60
2019-02-19T08:34:07.687Z,12.60
2019-02-19T08:36:11.834Z,12.30
2019-02-19T08:37:12.073Z,11.50
2019-02-19T08:39:16.235Z,15.30
2019-02-19T08:40:16.490Z,10.30
2019-02-19T08:42:20.648Z,11.40
2019-02-19T08:43:20.882Z,12.70
2019-02-19T08:45:25.029Z,12.70
2019-02-19T08:46:25.276Z,11.20
2019-02-19T08:48:29.430Z,12.40
2019-02-19T08:49:29.668Z,13.90
2019-02-19T08:51:33.818Z,15.30
2019-02-19T08:52:34.049Z,13.10
2019-02-19T08:54:38.213Z,13.20
2019-02-19T08:55:38.447Z,12.80
2019-02-19T08:57:31.546Z,13.00
2019-02-19T08:58:31.787Z,13.70
2019-02-19T09:00:35.928Z,10.80
2019-02-19T09:01:36.166Z,11.50
2019-02-19T09:03:40.327Z,10.80
2019-02-19T09:04:40.567Z,10.60
2019-02-19T09:06:44.717Z,11.80
2019-02-19T09:07:44.949Z,10.70
2019-02-19T09:09:49.115Z,12.00
2019-02-19T09:10:49.350Z,11.10
2019-02-19T09:12:53.511Z,12.50
2019-02-19T09:13:53.729Z,14.70
2019-02-19T09:15:57.896Z,12.40
2019-02-19T09:16:58.130Z,13.70
2019-02-19T09:19:02.295Z,13.80
2019-02-19T09:20:02.535Z,11.80
2019-02-19T09:22:06.679Z,12.90
2019-02-19T09:23:06.918Z,12.80
2019-02-19T09:25:11.088Z,14.20
2019-02-19T09:26:11.322Z,15.20
2019-02-19T09:28:04.397Z,20.10
2019-02-19T09:29:04.631Z,17.20
2019-02-19T09:31:08.801Z,14.70
2019-02-19T09:32:09.034Z,13.60
2019-02-19T09:34:13.201Z,16.30
2019-02-19T09:35:13.435Z,15.50
2019-02-19T09:37:17.581Z,16.40
2019-02-19T09:38:17.817Z,15.60
2019-02-19T09:40:21.980Z,15.60
2019-02-19T09:41:22.213Z,16.70
2019-02-19T09:43:35.140Z,15.50
2019-02-19T09:44:26.600Z,16.10
2019-02-19T09:46:30.761Z,14.70
2019-02-19T09:47:30.998Z,16.40
2019-02-19T09:49:35.162Z,20.10
2019-02-19T09:50:35.400Z,18.70
2019-02-19T09:52:39.544Z,19.10
2019-02-19T09:53:39.779Z,19.30
2019-02-19T09:55:43.967Z,21.20
2019-02-19T09:56:44.181Z,17.60
2019-02-19T09:58:48.329Z,20.50
2019-02-19T09:59:48.565Z,19.70
2019-02-19T10:01:52.732Z,20.30
2019-02-19T10:02:52.966Z,16.40
2019-02-19T10:04:57.133Z,19.70
2019-02-19T10:05:57.369Z,21.50
2019-02-19T10:07:50.443Z,21.40
2019-02-19T10:08:50.681Z,21.30
2019-02-19T10:10:54.850Z,21.00
2019-02-19T10:11:55.085Z,21.00
2019-02-19T10:13:59.241Z,25.10
2019-02-19T10:14:59.477Z,24.20
2019-02-19T10:17:03.647Z,23.80
2019-02-19T10:18:10.072Z,20.30
2019-02-19T10:20:08.060Z,21.40
2019-02-19T10:21:08.297Z,25.90
2019-02-19T10:23:12.470Z,23.20
2019-02-19T10:24:12.716Z,24.40
2019-02-19T10:26:16.872Z,21.10
2019-02-19T10:27:17.118Z,22.60
2019-02-19T10:29:21.255Z,24.00
2019-02-19T10:30:21.491Z,20.90
2019-02-19T10:32:25.664Z,18.40
2019-02-19T10:33:25.898Z,22.00
2019-02-19T10:35:30.068Z,22.80
2019-02-19T10:36:30.303Z,19.00
2019-02-19T10:38:34.455Z,21.00
2019-02-19T10:39:34.688Z,21.10
2019-02-19T10:41:38.857Z,18.20
2019-02-19T10:42:39.095Z,18.30
2019-02-19T10:44:43.243Z,17.20
2019-02-19T10:45:43.480Z,18.60
2019-02-19T10:47:36.576Z,17.70
2019-02-19T10:48:36.811Z,19.70
2019-02-19T10:50:40.996Z,17.00
2019-02-19T10:51:41.233Z,17.80
2019-02-19T10:53:45.378Z,16.20
2019-02-19T10:54:45.615Z,19.60
2019-02-19T10:56:49.779Z,16.40
2019-02-19T10:57:50.017Z,17.90
2019-02-19T10:59:54.161Z,16.50
2019-02-19T11:00:54.398Z,19.60
2019-02-19T11:02:58.575Z,20.10
2019-02-19T11:03:58.813Z,17.00
2019-02-19T11:06:03.035Z,16.90
2019-02-19T11:07:03.224Z,16.90
2019-02-19T11:09:07.365Z,17.60
2019-02-19T11:10:07.601Z,15.50
2019-02-19T11:12:11.773Z,20.80
2019-02-19T11:13:12.015Z,19.70
2019-02-19T11:15:17.476Z,18.30
2019-02-19T11:16:16.389Z,18.70
2019-02-19T11:18:28.133Z,23.80
2019-02-19T11:19:20.792Z,17.00
2019-02-19T11:21:24.948Z,16.40
2019-02-19T11:22:25.997Z,17.30
2019-02-19T11:24:29.346Z,18.30
2019-02-19T11:25:29.586Z,17.30
2019-02-19T11:27:22.685Z,17.30
2019-02-19T11:28:22.920Z,16.60
2019-02-19T11:30:27.069Z,17.10
2019-02-19T11:31:27.307Z,15.50
2019-02-19T11:33:31.479Z,16.30
2019-02-19T11:34:31.710Z,17.80
2019-02-19T11:36:35.861Z,18.50
2019-02-19T11:37:37.364Z,13.20
2019-02-19T11:39:40.270Z,14.40
2019-02-19T11:40:40.502Z,12.30
2019-02-19T11:42:44.684Z,14.90
2019-02-19T11:43:44.916Z,14.00
2019-02-19T11:45:49.062Z,14.60
2019-02-19T11:46:49.304Z,14.70
2019-02-19T11:48:53.471Z,18.90
2019-02-19T11:49:53.709Z,16.50
2019-02-19T11:51:57.856Z,16.70
2019-02-19T11:52:58.094Z,13.60
2019-02-19T11:55:02.263Z,13.00
2019-02-19T11:56:02.499Z,14.80
2019-02-19T11:57:55.615Z,14.50
2019-02-19T11:58:55.852Z,14.00
2019-02-19T12:01:00.000Z,14.30
2019-02-19T12:02:00.239Z,11.70
2019-02-19T12:04:04.413Z,12.10
2019-02-19T12:05:04.650Z,42.70
2019-02-19T12:07:08.803Z,12.70
2019-02-19T12:08:09.045Z,10.10
2019-02-19T12:10:13.220Z,11.30
2019-02-19T12:11:13.463Z,9.90
2019-02-19T12:13:17.642Z,11.80
2019-02-19T12:14:17.883Z,11.00
2019-02-19T12:16:22.061Z,14.10
2019-02-19T12:17:22.306Z,10.20
2019-02-19T12:19:26.485Z,10.60
2019-02-19T12:20:26.727Z,12.10
2019-02-19T12:22:30.879Z,11.10
2019-02-19T12:23:31.122Z,12.00
2019-02-19T12:25:35.296Z,14.40
2019-02-19T12:26:35.542Z,12.20
2019-02-19T12:28:39.695Z,14.00
2019-02-19T12:29:39.936Z,13.70
2019-02-19T12:31:44.113Z,13.80
2019-02-19T12:32:44.380Z,11.50
2019-02-19T12:34:48.529Z,12.60
2019-02-19T12:35:48.772Z,11.60
2019-02-19T12:37:41.853Z,12.90
2019-02-19T12:38:42.095Z,12.20
2019-02-19T12:40:46.278Z,11.10
2019-02-19T12:41:46.521Z,12.80
2019-02-19T12:43:51.084Z,11.80
2019-02-19T12:44:50.929Z,12.10
2019-02-19T12:46:55.116Z,12.10
2019-02-19T12:47:55.357Z,12.40
2019-02-19T12:49:59.555Z,15.10
2019-02-19T12:50:59.788Z,13.70
2019-02-19T12:53:03.945Z,12.90
2019-02-19T12:54:04.189Z,14.80
2019-02-19T12:56:08.377Z,14.40
2019-02-19T12:57:08.612Z,13.10
2019-02-19T12:59:12.770Z,14.40
2019-02-19T13:00:13.014Z,14.20
2019-02-19T13:02:17.197Z,12.80
2019-02-19T13:03:17.436Z,12.80
2019-02-19T13:05:21.625Z,11.40
2019-02-19T13:06:21.869Z,13.60
2019-02-19T13:08:26.034Z,14.50
2019-02-19T13:09:26.279Z,14.20
2019-02-19T13:11:30.462Z,15.10
2019-02-19T13:12:30.711Z,13.10
2019-02-19T13:14:34.872Z,15.90
2019-02-19T13:15:35.114Z,12.70
2019-02-19T13:17:28.229Z,13.10
2019-02-19T13:18:28.474Z,12.00
2019-02-19T13:20:32.640Z,10.00
2019-02-19T13:21:32.886Z,12.10
2019-02-19T13:23:37.078Z,11.50
2019-02-19T13:24:37.320Z,9.70
2019-02-19T13:26:41.509Z,12.80
2019-02-19T13:27:41.760Z,10.90
2019-02-19T13:29:45.921Z,14.80
2019-02-19T13:30:46.170Z,11.90
2019-02-19T13:32:50.359Z,9.90
2019-02-19T13:33:50.601Z,11.20
2019-02-19T13:35:54.770Z,12.40
2019-02-19T13:36:55.016Z,10.40
2019-02-19T13:38:59.205Z,10.00
2019-02-19T13:39:59.451Z,11.70
2019-02-19T13:42:03.653Z,8.60
2019-02-19T13:43:03.904Z,12.90
2019-02-19T13:45:08.090Z,10.10
2019-02-19T13:46:08.329Z,10.80
2019-02-19T13:48:05.910Z,11.40
2019-02-19T13:49:01.688Z,10.40
2019-02-19T13:51:05.863Z,12.30
2019-02-19T13:52:06.097Z,9.50
2019-02-19T13:54:10.289Z,12.70
2019-02-19T13:55:10.533Z,9.70
2019-02-19T13:57:14.695Z,9.20
2019-02-19T13:58:14.940Z,9.90
2019-02-19T14:00:19.127Z,9.10
2019-02-19T14:01:19.371Z,9.00
2019-02-19T14:03:23.558Z,10.00
2019-02-19T14:04:23.808Z,8.20
2019-02-19T14:06:27.973Z,7.80
2019-02-19T14:07:28.234Z,9.50
2019-02-19T14:09:32.408Z,8.10
2019-02-19T14:10:32.657Z,9.40
2019-02-19T14:12:36.856Z,10.00
2019-02-19T14:13:37.113Z,8.70
2019-02-19T14:15:41.380Z,10.90
2019-02-19T14:16:41.659Z,10.80
2019-02-19T14:18:45.904Z,10.90
2019-02-19T14:19:46.184Z,11.30
2019-02-19T14:21:50.339Z,9.70
2019-02-19T14:22:50.584Z,11.20
2019-02-19T14:24:54.826Z,8.20
2019-02-19T14:25:55.092Z,10.20
2019-02-19T14:27:48.190Z,9.40
2019-02-19T14:28:48.484Z,9.30
2019-02-19T14:30:52.736Z,8.60
2019-02-19T14:31:53.018Z,9.70
2019-02-19T14:33:57.216Z,9.70
2019-02-19T14:34:57.486Z,9.30
2019-02-19T14:37:01.657Z,10.90
2019-02-19T14:38:01.910Z,9.10
2019-02-19T14:40:10.224Z,12.00
2019-02-19T14:41:06.403Z,9.30
2019-02-19T14:43:11.618Z,11.90
2019-02-19T14:44:11.896Z,9.40
2019-02-19T14:46:16.150Z,10.80
2019-02-19T14:47:16.399Z,9.10
2019-02-19T14:49:20.567Z,9.30
2019-02-19T14:50:20.809Z,9.00
2019-02-19T14:52:25.095Z,8.00
2019-02-19T14:53:25.337Z,9.40
2019-02-19T14:55:29.522Z,7.90
2019-02-19T14:56:29.784Z,8.40
2019-02-19T14:58:33.940Z,7.60
2019-02-19T14:59:34.182Z,9.10
2019-02-19T15:01:38.365Z,10.70
2019-02-19T15:02:38.610Z,9.40
2019-02-19T15:04:42.785Z,8.40
2019-02-19T15:05:43.027Z,10.00
2019-02-19T15:07:36.125Z,8.60
2019-02-19T15:08:36.368Z,7.70
2019-02-19T15:10:40.548Z,10.90
2019-02-19T15:11:40.789Z,9.10
2019-02-19T15:13:44.940Z,7.40
2019-02-19T15:14:45.220Z,7.90
2019-02-19T15:16:49.396Z,8.50
2019-02-19T15:17:49.637Z,8.00
2019-02-19T15:19:53.859Z,10.50
2019-02-19T15:20:54.119Z,10.80
2019-02-19T15:22:58.266Z,11.20
2019-02-19T15:23:58.541Z,8.20
2019-02-19T15:26:02.775Z,9.80
2019-02-19T15:27:03.015Z,7.10
2019-02-19T15:29:07.184Z,9.20
2019-02-19T15:30:07.423Z,10.50
2019-02-19T15:32:11.653Z,7.60
2019-02-19T15:33:11.896Z,9.30
2019-02-19T15:35:16.106Z,8.80
2019-02-19T15:36:16.412Z,7.40
2019-02-19T15:38:09.497Z,6.80
2019-02-19T15:39:09.771Z,7.30
2019-02-19T15:41:13.956Z,9.50
2019-02-19T15:42:14.195Z,9.80
2019-02-19T15:44:18.382Z,7.30
2019-02-19T15:45:18.620Z,7.10
2019-02-19T15:47:22.797Z,9.00
2019-02-19T15:48:23.053Z,9.30
2019-02-19T15:50:27.263Z,7.10
2019-02-19T15:51:27.498Z,9.20
2019-02-19T15:53:31.647Z,7.20
2019-02-19T15:54:31.889Z,8.60
2019-02-19T15:56:36.136Z,8.60
2019-02-19T15:57:36.404Z,8.30
2019-02-19T15:59:40.586Z,9.20
2019-02-19T16:00:40.823Z,9.00
2019-02-19T16:02:44.999Z,11.10
2019-02-19T16:03:45.238Z,9.90
2019-02-19T16:05:49.491Z,12.80
2019-02-19T16:06:49.756Z,8.60
2019-02-19T16:08:53.908Z,11.30
2019-02-19T16:09:54.145Z,8.30
2019-02-19T16:11:58.320Z,10.80
2019-02-19T16:12:58.556Z,10.30
2019-02-19T16:15:02.707Z,9.40
2019-02-19T16:16:02.957Z,9.50
2019-02-19T16:17:56.050Z,13.50
2019-02-19T16:18:56.285Z,9.20
2019-02-19T16:21:00.452Z,9.50
2019-02-19T16:22:00.690Z,10.70
2019-02-19T16:24:04.835Z,11.80
2019-02-19T16:25:05.078Z,10.90
2019-02-19T16:27:09.248Z,11.40
2019-02-19T16:28:09.483Z,8.20
2019-02-19T16:30:13.634Z,9.30
2019-02-19T16:31:13.869Z,11.20
2019-02-19T16:33:18.038Z,11.80
2019-02-19T16:34:18.277Z,9.30
2019-02-19T16:36:22.445Z,11.90
2019-02-19T16:37:22.683Z,12.80
2019-02-19T16:39:26.832Z,11.60
2019-02-19T16:40:27.070Z,13.80
2019-02-19T16:42:31.231Z,10.70
2019-02-19T16:43:31.499Z,12.40
2019-02-19T16:45:35.726Z,13.70
2019-02-19T16:46:36.083Z,21.90
2019-02-19T16:48:40.443Z,10.80
2019-02-19T16:49:40.448Z,11.80
2019-02-19T16:51:44.613Z,14.20
2019-02-19T16:52:44.848Z,15.00
2019-02-19T16:54:48.998Z,12.00
2019-02-19T16:55:49.234Z,12.30
2019-02-19T16:57:42.329Z,13.50
2019-02-19T16:58:42.571Z,13.50
2019-02-19T17:00:46.718Z,12.90
2019-02-19T17:01:46.962Z,12.80
2019-02-19T17:03:51.139Z,16.10
2019-02-19T17:04:51.375Z,18.10
2019-02-19T17:06:55.545Z,15.40
2019-02-19T17:07:55.784Z,15.90
2019-02-19T17:09:59.932Z,11.20
2019-02-19T17:11:00.179Z,14.90
2019-02-19T17:13:04.344Z,15.10
2019-02-19T17:14:04.584Z,13.20
2019-02-19T17:16:08.736Z,13.00
2019-02-19T17:17:08.973Z,12.70
2019-02-19T17:19:13.148Z,13.60
2019-02-19T17:20:26.206Z,15.90
2019-02-19T17:22:17.559Z,13.60
2019-02-19T17:23:17.800Z,14.40
2019-02-19T17:25:21.951Z,12.00
2019-02-19T17:26:22.185Z,12.70
2019-02-19T17:28:26.352Z,14.10
2019-02-19T17:29:26.594Z,14.90
2019-02-19T17:31:30.738Z,14.40
2019-02-19T17:32:30.976Z,12.90
2019-02-19T17:34:35.147Z,14.10
2019-02-19T17:35:35.384Z,13.20
2019-02-19T17:37:28.464Z,18.20
2019-02-19T17:38:28.700Z,14.40
2019-02-19T17:40:32.903Z,18.20
2019-02-19T17:41:33.146Z,16.20
2019-02-19T17:43:37.313Z,18.10
2019-02-19T17:44:37.548Z,15.70
2019-02-19T17:46:41.695Z,17.50
2019-02-19T17:47:41.935Z,16.80
2019-02-19T17:49:46.103Z,17.00
2019-02-19T17:50:46.343Z,17.20
2019-02-19T17:52:50.509Z,17.90
2019-02-19T17:53:50.748Z,18.50
2019-02-19T17:55:54.921Z,19.20
2019-02-19T17:56:55.152Z,17.20
2019-02-19T17:58:59.314Z,20.00
2019-02-19T17:59:59.574Z,18.60
2019-02-19T18:02:03.716Z,19.20
2019-02-19T18:03:04.005Z,22.10
2019-02-19T18:05:08.180Z,22.90
2019-02-19T18:06:08.447Z,21.10
2019-02-19T18:08:01.610Z,36.50
2019-02-19T18:09:01.923Z,37.90
2019-02-19T18:11:06.174Z,23.00
2019-02-19T18:12:06.550Z,22.70
2019-02-19T18:14:10.859Z,22.30
2019-02-19T18:15:11.178Z,22.60
2019-02-19T18:17:15.340Z,21.90
2019-02-19T18:18:15.578Z,21.50
2019-02-19T18:20:19.735Z,23.80
2019-02-19T18:21:20.015Z,21.30
2019-02-19T18:23:24.240Z,22.20
2019-02-19T18:24:24.470Z,22.00
2019-02-19T18:26:28.626Z,22.70
2019-02-19T18:27:28.852Z,20.90
2019-02-19T18:29:33.022Z,21.70
2019-02-19T18:30:33.280Z,24.70
2019-02-19T18:32:37.446Z,23.60
2019-02-19T18:33:37.711Z,25.40
2019-02-19T18:35:41.903Z,23.20
2019-02-19T18:36:42.131Z,24.50
2019-02-19T18:38:46.287Z,23.70
2019-02-19T18:39:46.524Z,25.00
2019-02-19T18:41:50.670Z,22.60
2019-02-19T18:42:50.983Z,22.80
2019-02-19T18:44:56.814Z,21.70
2019-02-19T18:45:55.495Z,21.10
2019-02-19T18:47:48.568Z,21.50
2019-02-19T18:48:48.837Z,19.70
2019-02-19T18:50:58.453Z,21.80
2019-02-19T18:51:53.395Z,22.60
2019-02-19T18:53:57.611Z,20.10
2019-02-19T18:54:57.844Z,19.60
2019-02-19T18:57:02.010Z,20.20
2019-02-19T18:58:02.314Z,21.90
2019-02-19T19:00:06.481Z,22.50
2019-02-19T19:01:08.559Z,22.70
2019-02-19T19:03:10.981Z,23.30
2019-02-19T19:04:11.332Z,21.10
2019-02-19T19:06:15.576Z,22.50
2019-02-19T19:07:16.012Z,24.00
2019-02-19T19:09:20.035Z,44.70
2019-02-19T19:10:20.407Z,43.00
2019-02-19T19:12:24.769Z,29.10
2019-02-19T19:13:24.938Z,26.60
2019-02-19T19:15:29.234Z,28.60
2019-02-19T19:16:29.543Z,25.50
2019-02-19T19:18:33.771Z,23.20
2019-02-19T19:19:34.193Z,20.80
2019-02-19T19:21:38.533Z,23.80
2019-02-19T19:22:38.694Z,23.70
2019-02-19T19:24:42.862Z,22.10
2019-02-19T19:25:43.099Z,23.50
2019-02-19T19:27:36.193Z,24.90
2019-02-19T19:28:36.438Z,25.90
2019-02-19T19:30:40.605Z,24.50
2019-02-19T19:31:40.845Z,22.90
2019-02-19T19:33:44.998Z,22.00
2019-02-19T19:34:45.228Z,21.20
2019-02-19T19:36:49.391Z,22.10
2019-02-19T19:37:49.631Z,25.10
2019-02-19T19:39:53.778Z,22.20
2019-02-19T19:40:54.020Z,23.50
2019-02-19T19:42:58.182Z,24.70
2019-02-19T19:43:58.423Z,22.00
2019-02-19T19:46:02.636Z,24.50
2019-02-19T19:47:02.866Z,24.60
2019-02-19T19:49:07.009Z,23.50
2019-02-19T19:50:07.251Z,24.30
2019-02-19T19:52:11.409Z,24.30
2019-02-19T19:53:11.647Z,25.40
2019-02-19T19:55:15.798Z,24.80